Time;durP1;ratioP1;P1;durP2;ratioP2;P2;SDS_P1;SDS_P2;PMS_P1;PMS_P2;Temp;Humidity;BMP_temperature;BMP_pressure;BME280_temperature;BME280_humidity;BME280_pressure;Samples;Min_cycle;Max_cycle;Signal;HPM_P1;HPM_P2
2021/08/14 00:01:49;;;;;;;9.25;4.20;;;;;;;;;;5111414;27;20422;-66
2021/08/14 00:04:16;;;;;;;5.95;3.40;;;;;;;;;;5110054;28;20032;-66
2021/08/14 00:06:42;;;;;;;7.72;3.72;;;;;;;;;;5110948;28;20517;-66
2021/08/14 00:11:14;;;;;;;7.78;3.58;;;;;;;;;;5111935;27;20310;-68
2021/08/14 00:13:40;;;;;;;6.45;3.50;;;;;;;;;;5110936;28;20581;-68
2021/08/14 00:16:06;;;;;;;6.80;3.80;;;;;;;;;;5111381;28;20056;-69
2021/08/14 00:18:33;;;;;;;8.20;4.50;;;;;;;;;;5111278;28;20019;-68
2021/08/14 00:20:59;;;;;;;6.93;4.00;;;;;;;;;;5110962;28;20024;-69
2021/08/14 00:23:25;;;;;;;6.90;3.80;;;;;;;;;;5111171;28;20027;-69
2021/08/14 00:25:51;;;;;;;7.40;4.07;;;;;;;;;;5111114;28;20024;-67
2021/08/14 00:28:17;;;;;;;8.60;4.20;;;;;;;;;;5109369;28;20027;-67
2021/08/14 00:30:44;;;;;;;7.13;4.20;;;;;;;;;;5110875;28;20488;-67
2021/08/14 00:34:28;;;;;;;8.40;4.32;;;;;;;;;;5111455;27;20412;-66
2021/08/14 00:36:54;;;;;;;8.48;4.50;;;;;;;;;;5110959;28;20024;-66
2021/08/14 00:39:20;;;;;;;9.35;4.45;;;;;;;;;;5110006;28;20024;-67
2021/08/14 00:42:47;;;;;;;8.27;3.78;;;;;;;;;;5111292;27;20415;-67
2021/08/14 00:45:13;;;;;;;7.68;4.28;;;;;;;;;;5111724;28;20165;-66
2021/08/14 00:47:42;;;;;;;7.20;4.40;;;;;;;;;;5111254;28;20032;-66
2021/08/14 00:50:10;;;;;;;7.22;4.10;;;;;;;;;;5110882;28;20095;-66
2021/08/14 00:52:36;;;;;;;6.22;3.63;;;;;;;;;;5111180;28;20024;-67
2021/08/14 00:55:02;;;;;;;6.47;3.92;;;;;;;;;;5111165;28;20019;-66
2021/08/14 00:59:06;;;;;;;8.18;3.88;;;;;;;;;;5112212;27;20423;-66
2021/08/14 01:03:37;;;;;;;8.57;3.92;;;;;;;;;;5111476;27;20388;-68
2021/08/14 01:06:03;;;;;;;7.78;4.35;;;;;;;;;;5111350;28;20028;-67
2021/08/14 01:08:29;;;;;;;7.97;3.78;;;;;;;;;;5111377;28;20099;-66
2021/08/14 01:10:56;;;;;;;8.77;4.07;;;;;;;;;;5110916;28;20376;-68
2021/08/14 01:13:22;;;;;;;11.13;4.82;;;;;;;;;;5111374;28;20016;-66
2021/08/14 01:16:13;;;;;;;6.72;3.55;;;;;;;;;;5111393;27;20385;-68
2021/08/14 01:19:56;;;;;;;5.47;3.45;;;;;;;;;;5071362;28;20399;-66
2021/08/14 01:22:22;;;;;;;8.40;4.65;;;;;;;;;;5069503;28;20039;-66
2021/08/14 01:24:49;;;;;;;8.60;4.32;;;;;;;;;;5070305;28;20029;-66
2021/08/14 01:27:16;;;;;;;9.25;4.22;;;;;;;;;;5070743;28;20021;-66
2021/08/14 01:29:42;;;;;;;11.10;4.95;;;;;;;;;;5070671;28;20481;-65
2021/08/14 01:32:09;;;;;;;7.97;4.55;;;;;;;;;;5068905;28;20120;-65
2021/08/14 01:35:20;;;;;;;7.20;3.83;;;;;;;;;;5111904;27;20510;-66
2021/08/14 01:37:46;;;;;;;9.85;4.65;;;;;;;;;;5111344;28;20035;-66
2021/08/14 01:40:12;;;;;;;8.63;4.38;;;;;;;;;;5110900;28;20027;-66
2021/08/14 01:42:39;;;;;;;6.93;3.83;;;;;;;;;;5111290;28;20077;-65
2021/08/14 01:45:06;;;;;;;6.80;4.05;;;;;;;;;;5109510;28;20019;-66
2021/08/14 01:47:32;;;;;;;8.02;3.92;;;;;;;;;;5109875;28;20028;-65
2021/08/14 01:49:58;;;;;;;8.65;4.95;;;;;;;;;;5109889;28;20404;-65
2021/08/14 01:52:24;;;;;;;7.93;3.95;;;;;;;;;;5110845;28;20092;-66
2021/08/14 01:54:50;;;;;;;6.32;4.07;;;;;;;;;;5110872;28;20032;-66
2021/08/14 01:57:16;;;;;;;6.57;3.75;;;;;;;;;;5111164;28;20498;-66
2021/08/14 01:59:43;;;;;;;6.45;3.88;;;;;;;;;;5110528;28;20028;-66
2021/08/14 02:02:09;;;;;;;7.95;4.18;;;;;;;;;;5110876;28;20492;-66
2021/08/14 02:04:35;;;;;;;7.90;4.47;;;;;;;;;;5110867;28;20077;-66
2021/08/14 02:08:09;;;;;;;6.28;3.80;;;;;;;;;;5111081;27;20528;-66
2021/08/14 02:10:35;;;;;;;6.03;3.50;;;;;;;;;;5111311;28;20430;-66
2021/08/14 02:13:01;;;;;;;7.15;3.58;;;;;;;;;;5111351;28;20110;-66
2021/08/14 02:17:41;;;;;;;8.23;4.47;;;;;;;;;;5112120;27;20875;-67
2021/08/14 02:20:08;;;;;;;5.75;3.55;;;;;;;;;;5111195;28;20106;-66
2021/08/14 02:24:17;;;;;;;5.50;3.38;;;;;;;;;;5112165;27;20420;-66
2021/08/14 02:26:44;;;;;;;7.85;3.80;;;;;;;;;;5111393;28;20024;-66
2021/08/14 02:29:10;;;;;;;8.73;4.53;;;;;;;;;;5110960;28;20032;-66
2021/08/14 02:31:36;;;;;;;9.38;4.68;;;;;;;;;;5111252;28;20024;-65
2021/08/14 02:34:03;;;;;;;8.23;4.28;;;;;;;;;;5111202;28;20441;-65
2021/08/14 02:36:29;;;;;;;7.70;3.75;;;;;;;;;;5110794;28;20047;-66
2021/08/14 02:38:55;;;;;;;10.25;4.32;;;;;;;;;;5111130;28;20032;-66
2021/08/14 02:41:21;;;;;;;8.70;4.40;;;;;;;;;;5110657;28;20457;-65
2021/08/14 02:44:25;;;;;;;6.78;3.83;;;;;;;;;;5112248;27;20386;-66
2021/08/14 02:46:51;;;;;;;9.30;4.88;;;;;;;;;;5111360;28;20230;-65
2021/08/14 02:49:17;;;;;;;7.25;4.35;;;;;;;;;;5109639;28;20024;-65
2021/08/14 02:53:20;;;;;;;6.75;4.15;;;;;;;;;;5112173;27;20405;-66
2021/08/14 02:55:46;;;;;;;7.10;4.03;;;;;;;;;;5111015;28;20027;-66
2021/08/14 03:02:13;;;;;;;7.40;3.97;;;;;;;;;;5111878;27;20397;-66
2021/08/14 03:04:39;;;;;;;7.78;4.18;;;;;;;;;;5109610;28;20028;-66
2021/08/14 03:07:05;;;;;;;6.63;3.63;;;;;;;;;;5111304;28;20024;-66
2021/08/14 03:09:32;;;;;;;7.10;4.35;;;;;;;;;;5111447;28;20016;-66
2021/08/14 03:11:58;;;;;;;7.75;4.05;;;;;;;;;;5111420;28;20024;-66
2021/08/14 03:14:24;;;;;;;10.90;4.80;;;;;;;;;;5111345;28;20035;-68
2021/08/14 03:16:50;;;;;;;7.95;4.82;;;;;;;;;;5110754;28;20448;-66
2021/08/14 03:19:16;;;;;;;9.10;4.88;;;;;;;;;;5111304;28;20099;-66
2021/08/14 03:25:10;;;;;;;7.18;4.40;;;;;;;;;;5111039;27;20473;-66
2021/08/14 03:27:37;;;;;;;6.47;4.18;;;;;;;;;;5111615;28;20027;-66
2021/08/14 03:30:03;;;;;;;8.63;4.53;;;;;;;;;;5111320;28;20024;-66
2021/08/14 03:33:14;;;;;;;9.27;4.55;;;;;;;;;;5111789;27;20388;-66
2021/08/14 03:35:40;;;;;;;9.55;5.38;;;;;;;;;;5110062;28;20054;-66
2021/08/14 03:38:06;;;;;;;7.93;4.43;;;;;;;;;;5110839;28;20098;-66
2021/08/14 03:40:32;;;;;;;9.15;4.50;;;;;;;;;;5111385;28;20027;-66
2021/08/14 03:42:58;;;;;;;7.78;4.82;;;;;;;;;;5111113;28;20081;-66
2021/08/14 03:45:25;;;;;;;8.57;5.07;;;;;;;;;;5111099;28;20028;-66
2021/08/14 03:47:51;;;;;;;11.57;5.68;;;;;;;;;;5109900;28;20507;-66
2021/08/14 03:50:17;;;;;;;13.68;5.82;;;;;;;;;;5111050;28;20020;-66
2021/08/14 03:52:43;;;;;;;8.35;4.90;;;;;;;;;;5109505;28;20035;-66
2021/08/14 03:55:09;;;;;;;7.57;4.20;;;;;;;;;;5111121;28;20095;-66
2021/08/14 03:57:53;;;;;;;6.90;4.07;;;;;;;;;;5111930;27;20508;-66
2021/08/14 04:00:20;;;;;;;8.98;4.32;;;;;;;;;;5110877;28;20430;-66
2021/08/14 04:02:46;;;;;;;7.18;4.25;;;;;;;;;;5111318;28;20103;-67
2021/08/14 04:05:12;;;;;;;8.43;4.28;;;;;;;;;;5109999;28;20024;-67
2021/08/14 04:07:38;;;;;;;7.18;4.63;;;;;;;;;;5110774;28;20020;-67
2021/08/14 04:10:04;;;;;;;10.73;5.18;;;;;;;;;;5111306;28;20480;-67
2021/08/14 04:12:31;;;;;;;8.82;5.20;;;;;;;;;;5111562;28;20069;-69
2021/08/14 04:14:59;;;;;;;9.13;4.90;;;;;;;;;;5109747;28;20024;-68
2021/08/14 04:17:25;;;;;;;6.93;4.20;;;;;;;;;;5111041;28;20487;-68
2021/08/14 04:19:51;;;;;;;7.05;4.25;;;;;;;;;;5110623;28;20036;-68
2021/08/14 04:23:13;;;;;;;6.43;4.10;;;;;;;;;;5111580;27;20392;-68
2021/08/14 04:25:39;;;;;;;6.97;3.78;;;;;;;;;;5111339;28;20077;-68
2021/08/14 04:28:05;;;;;;;9.57;4.35;;;;;;;;;;5111008;28;20077;-67
2021/08/14 04:30:31;;;;;;;7.75;4.20;;;;;;;;;;5111312;28;20026;-68
2021/08/14 04:32:57;;;;;;;6.45;4.18;;;;;;;;;;5111547;28;20023;-67
2021/08/14 04:38:15;;;;;;;8.85;4.18;;;;;;;;;;5111507;27;20800;-67
2021/08/14 04:42:14;;;;;;;6.75;3.85;;;;;;;;;;5111174;27;20847;-67
2021/08/14 04:44:41;;;;;;;5.82;3.90;;;;;;;;;;5110134;28;20092;-67
2021/08/14 04:47:07;;;;;;;6.95;4.20;;;;;;;;;;5111425;28;20058;-66
2021/08/14 04:49:33;;;;;;;7.03;3.80;;;;;;;;;;5110976;28;20090;-67
2021/08/14 04:51:59;;;;;;;8.07;4.20;;;;;;;;;;5111419;28;20103;-67
2021/08/14 04:54:25;;;;;;;8.63;5.32;;;;;;;;;;5111821;28;20024;-66
2021/08/14 04:59:51;;;;;;;7.32;3.97;;;;;;;;;;5112120;27;20776;-66
2021/08/14 05:02:18;;;;;;;9.38;4.32;;;;;;;;;;5110908;28;20028;-66
2021/08/14 05:04:44;;;;;;;6.10;3.63;;;;;;;;;;5111296;28;20026;-66
2021/08/14 05:07:10;;;;;;;9.73;3.83;;;;;;;;;;5109958;28;20390;-66
2021/08/14 05:11:13;;;;;;;7.47;3.60;;;;;;;;;;5111007;27;20408;-67
2021/08/14 05:13:39;;;;;;;5.43;2.83;;;;;;;;;;5111459;28;20052;-67
2021/08/14 05:16:05;;;;;;;8.60;4.00;;;;;;;;;;5109688;28;20488;-67
2021/08/14 05:18:31;;;;;;;7.40;3.92;;;;;;;;;;5111239;28;20539;-67
2021/08/14 05:20:57;;;;;;;7.18;3.42;;;;;;;;;;5111234;28;20067;-67
2021/08/14 05:23:23;;;;;;;5.80;3.30;;;;;;;;;;5110749;28;20058;-66
2021/08/14 05:25:50;;;;;;;6.88;3.75;;;;;;;;;;5109908;28;20443;-66
2021/08/14 05:28:16;;;;;;;7.68;4.07;;;;;;;;;;5109769;28;20028;-67
2021/08/14 05:30:42;;;;;;;6.35;3.42;;;;;;;;;;5109287;28;20445;-67
2021/08/14 05:33:08;;;;;;;5.60;3.50;;;;;;;;;;5111010;28;20028;-69
2021/08/14 05:35:34;;;;;;;5.28;3.58;;;;;;;;;;5110916;28;20031;-69
2021/08/14 05:38:01;;;;;;;8.35;3.72;;;;;;;;;;5110591;28;20031;-68
2021/08/14 05:40:27;;;;;;;5.55;3.13;;;;;;;;;;5110796;28;20045;-68
2021/08/14 05:42:53;;;;;;;5.45;3.38;;;;;;;;;;5111207;28;20503;-67
2021/08/14 05:45:19;;;;;;;6.65;4.00;;;;;;;;;;5110359;28;20066;-68
2021/08/14 05:47:45;;;;;;;7.55;3.85;;;;;;;;;;5109392;28;20024;-68
2021/08/14 05:50:11;;;;;;;6.75;3.70;;;;;;;;;;5110610;28;20115;-68
2021/08/14 05:52:38;;;;;;;6.15;3.28;;;;;;;;;;5110296;28;20150;-67
2021/08/14 05:55:04;;;;;;;6.93;3.88;;;;;;;;;;5110989;28;20076;-67
2021/08/14 05:59:30;;;;;;;4.72;3.13;;;;;;;;;;5070565;28;20403;-68
2021/08/14 06:01:57;;;;;;;7.07;3.75;;;;;;;;;;5069493;28;20489;-68
2021/08/14 06:04:23;;;;;;;5.90;3.22;;;;;;;;;;5070793;28;20028;-68
2021/08/14 06:06:49;;;;;;;5.03;2.90;;;;;;;;;;5070378;28;20028;-69
2021/08/14 06:09:15;;;;;;;6.18;3.35;;;;;;;;;;5070728;28;20028;-69
2021/08/14 06:11:42;;;;;;;5.47;3.25;;;;;;;;;;5070704;28;20025;-69
2021/08/14 06:14:08;;;;;;;4.50;3.13;;;;;;;;;;5068860;28;20540;-69
2021/08/14 06:16:34;;;;;;;6.63;3.22;;;;;;;;;;5070495;28;20024;-68
2021/08/14 06:19:01;;;;;;;7.22;3.80;;;;;;;;;;5070373;28;20397;-71
2021/08/14 06:22:37;;;;;;;8.38;3.83;;;;;;;;;;5071228;28;20403;-68
2021/08/14 06:25:04;;;;;;;6.90;4.25;;;;;;;;;;5070807;28;20027;-67
2021/08/14 06:27:30;;;;;;;9.15;4.07;;;;;;;;;;5070293;28;20477;-67
2021/08/14 06:29:56;;;;;;;5.97;3.53;;;;;;;;;;5070894;28;20024;-67
2021/08/14 06:32:22;;;;;;;11.02;4.10;;;;;;;;;;5070633;28;20025;-67
2021/08/14 06:34:49;;;;;;;7.53;3.70;;;;;;;;;;5070217;28;20100;-66
2021/08/14 06:37:15;;;;;;;6.80;3.60;;;;;;;;;;5069475;28;20029;-67
2021/08/14 06:39:41;;;;;;;8.23;4.53;;;;;;;;;;5070392;28;20480;-69
2021/08/14 06:42:08;;;;;;;7.40;3.80;;;;;;;;;;5070115;28;20493;-67
2021/08/14 06:44:34;;;;;;;5.93;3.67;;;;;;;;;;5070318;28;20028;-68
2021/08/14 06:47:02;;;;;;;7.07;3.80;;;;;;;;;;5070332;28;20029;-67
2021/08/14 06:49:29;;;;;;;6.15;3.88;;;;;;;;;;5069887;28;20096;-67
2021/08/14 06:51:55;;;;;;;5.57;3.55;;;;;;;;;;5070443;28;20039;-68
2021/08/14 06:54:21;;;;;;;5.85;3.28;;;;;;;;;;5070244;28;20527;-67
2021/08/14 06:56:47;;;;;;;7.10;4.30;;;;;;;;;;5069881;28;20393;-68
2021/08/14 06:59:13;;;;;;;6.10;3.40;;;;;;;;;;5070159;28;20083;-67
2021/08/14 07:01:40;;;;;;;8.55;4.80;;;;;;;;;;5069616;28;20396;-67
2021/08/14 07:04:06;;;;;;;6.05;3.63;;;;;;;;;;5070157;28;20017;-67
2021/08/14 07:06:32;;;;;;;6.90;3.92;;;;;;;;;;5068708;28;20024;-67
2021/08/14 07:08:58;;;;;;;7.90;4.35;;;;;;;;;;5069525;28;20025;-67
2021/08/14 07:11:25;;;;;;;9.68;4.85;;;;;;;;;;5069857;28;20021;-67
2021/08/14 07:13:51;;;;;;;9.95;4.13;;;;;;;;;;5068490;28;20028;-67
2021/08/14 07:16:18;;;;;;;6.10;3.72;;;;;;;;;;5069320;28;20469;-69
2021/08/14 07:18:44;;;;;;;8.52;4.80;;;;;;;;;;5069632;28;20393;-67
2021/08/14 07:21:10;;;;;;;10.07;3.78;;;;;;;;;;5069378;28;20048;-67
2021/08/14 07:23:37;;;;;;;8.93;5.32;;;;;;;;;;5069114;28;20036;-67
2021/08/14 07:26:04;;;;;;;7.43;4.20;;;;;;;;;;5069484;28;20512;-67
2021/08/14 07:29:13;;;;;;;7.55;4.03;;;;;;;;;;5070864;28;20403;-67
2021/08/14 07:31:39;;;;;;;7.63;5.00;;;;;;;;;;5069166;28;20083;-68
2021/08/14 07:34:06;;;;;;;6.68;4.30;;;;;;;;;;5070781;28;20036;-68
2021/08/14 07:36:32;;;;;;;13.45;4.55;;;;;;;;;;5070777;28;20017;-68
2021/08/14 07:38:58;;;;;;;7.68;3.92;;;;;;;;;;5070759;28;20060;-67
2021/08/14 07:41:24;;;;;;;6.75;4.50;;;;;;;;;;5070618;28;20047;-67
2021/08/14 07:43:50;;;;;;;10.52;4.80;;;;;;;;;;5070508;28;20505;-67
2021/08/14 07:46:17;;;;;;;8.50;4.32;;;;;;;;;;5070643;28;20053;-67
2021/08/14 07:50:37;;;;;;;7.32;4.20;;;;;;;;;;5111386;27;20768;-66
2021/08/14 07:53:04;;;;;;;8.45;4.38;;;;;;;;;;5111538;28;20081;-66
2021/08/14 07:55:31;;;;;;;8.25;4.55;;;;;;;;;;5111255;28;20020;-66
2021/08/14 07:57:58;;;;;;;7.15;4.03;;;;;;;;;;5110910;28;20034;-66
2021/08/14 08:00:24;;;;;;;8.65;4.53;;;;;;;;;;5109975;28;20024;-66
2021/08/14 08:02:51;;;;;;;6.25;4.32;;;;;;;;;;5111200;28;20472;-67
2021/08/14 08:05:17;;;;;;;6.97;4.38;;;;;;;;;;5110784;28;20166;-66
2021/08/14 08:07:44;;;;;;;6.38;4.32;;;;;;;;;;5111115;28;20032;-67
2021/08/14 08:10:12;;;;;;;7.82;4.32;;;;;;;;;;5109694;28;20028;-66
2021/08/14 08:12:38;;;;;;;8.57;4.30;;;;;;;;;;5110681;28;20506;-66
2021/08/14 08:15:05;;;;;;;7.80;4.20;;;;;;;;;;5110934;28;20062;-67
2021/08/14 08:17:31;;;;;;;7.63;4.75;;;;;;;;;;5110963;28;20052;-67
2021/08/14 08:19:57;;;;;;;8.48;3.97;;;;;;;;;;5109090;28;20028;-67
2021/08/14 08:22:23;;;;;;;7.88;4.80;;;;;;;;;;5110723;28;20075;-67
2021/08/14 08:24:50;;;;;;;9.35;4.68;;;;;;;;;;5110754;28;20043;-67
2021/08/14 08:27:16;;;;;;;6.82;4.28;;;;;;;;;;5110315;28;20042;-67
2021/08/14 08:29:42;;;;;;;7.22;4.65;;;;;;;;;;5110713;28;20043;-67
2021/08/14 08:32:09;;;;;;;8.10;4.88;;;;;;;;;;5110747;28;20024;-67
2021/08/14 08:34:36;;;;;;;8.77;5.55;;;;;;;;;;5110117;28;20027;-67
2021/08/14 08:37:02;;;;;;;14.60;5.40;;;;;;;;;;5110500;28;20092;-67
2021/08/14 08:39:30;;;;;;;8.80;4.95;;;;;;;;;;5110467;28;20020;-67
2021/08/14 08:41:57;;;;;;;9.13;4.50;;;;;;;;;;5110008;28;20024;-68
2021/08/14 08:44:24;;;;;;;8.90;5.03;;;;;;;;;;5109019;28;20026;-67
2021/08/14 08:46:50;;;;;;;13.23;5.70;;;;;;;;;;5110298;28;20028;-67
2021/08/14 08:49:18;;;;;;;9.35;5.25;;;;;;;;;;5109611;28;20560;-66
2021/08/14 08:51:45;;;;;;;10.48;4.50;;;;;;;;;;5110476;28;20051;-67
2021/08/14 08:54:12;;;;;;;7.63;4.28;;;;;;;;;;5108512;28;20020;-67
2021/08/14 08:56:38;;;;;;;11.70;5.20;;;;;;;;;;5110186;28;20020;-68
2021/08/14 08:59:05;;;;;;;9.70;5.03;;;;;;;;;;5110036;28;20539;-67
2021/08/14 09:01:31;;;;;;;8.48;4.68;;;;;;;;;;5098538;28;20138;-67
2021/08/14 09:04:15;;;;;;;10.02;4.70;;;;;;;;;;5095043;28;20028;-67
2021/08/14 09:06:42;;;;;;;7.32;4.35;;;;;;;;;;5095010;28;20020;-67
2021/08/14 09:09:11;;;;;;;8.60;4.70;;;;;;;;;;5095835;28;20036;-67
2021/08/14 09:11:47;;;;;;;7.60;4.40;;;;;;;;;;5096194;28;20457;-67
2021/08/14 09:14:13;;;;;;;7.15;4.57;;;;;;;;;;5096336;28;20031;-67
2021/08/14 09:16:39;;;;;;;8.05;4.78;;;;;;;;;;5095752;28;20026;-67
2021/08/14 09:19:05;;;;;;;7.30;3.78;;;;;;;;;;5096146;28;20095;-67
2021/08/14 09:21:33;;;;;;;6.82;4.00;;;;;;;;;;5096078;28;20462;-67
2021/08/14 09:24:04;;;;;;;7.38;4.35;;;;;;;;;;5095711;28;20027;-67
2021/08/14 09:26:31;;;;;;;7.63;4.28;;;;;;;;;;5096134;28;20464;-67
2021/08/14 09:29:04;;;;;;;6.47;3.97;;;;;;;;;;5095833;28;20047;-67
2021/08/14 09:31:46;;;;;;;9.00;3.65;;;;;;;;;;5096323;28;20384;-67
2021/08/14 09:34:20;;;;;;;6.95;4.28;;;;;;;;;;5095817;28;20013;-67
2021/08/14 09:36:59;;;;;;;6.60;4.50;;;;;;;;;;5094149;28;20028;-67
2021/08/14 09:39:26;;;;;;;7.55;4.45;;;;;;;;;;5096267;28;20020;-67
2021/08/14 09:42:08;;;;;;;7.38;4.28;;;;;;;;;;5095613;28;20028;-67
2021/08/14 09:44:35;;;;;;;7.47;4.28;;;;;;;;;;5095226;28;20020;-66
2021/08/14 09:47:08;;;;;;;5.88;3.92;;;;;;;;;;5095555;28;20027;-67
2021/08/14 09:49:34;;;;;;;;;;;;;;;;;;5094475;28;20048;-67
2021/08/14 09:52:19;;;;;;;8.85;4.20;;;;;;;;;;5093886;28;19965;-67
2021/08/14 09:54:46;;;;;;;6.18;3.85;;;;;;;;;;5095749;28;20027;-67
2021/08/14 09:57:19;;;;;;;6.43;3.72;;;;;;;;;;5095463;28;20472;-67
2021/08/14 09:59:46;;;;;;;7.55;3.78;;;;;;;;;;5095389;28;20418;-67
2021/08/14 10:02:15;;;;;;;9.48;4.72;;;;;;;;;;5095321;28;20068;-67
2021/08/14 10:04:41;;;;;;;6.35;4.05;;;;;;;;;;5095217;28;20024;-67
2021/08/14 10:07:08;;;;;;;9.65;3.72;;;;;;;;;;5093896;28;20024;-67
2021/08/14 10:09:35;;;;;;;8.32;4.18;;;;;;;;;;5095158;28;20078;-67
2021/08/14 10:12:01;;;;;;;8.35;4.10;;;;;;;;;;5093870;28;20499;-67
2021/08/14 10:14:27;;;;;;;6.47;3.65;;;;;;;;;;5093763;28;20072;-68
2021/08/14 10:16:54;;;;;;;5.78;3.75;;;;;;;;;;5095075;28;20024;-67
2021/08/14 10:19:21;;;;;;;7.13;3.95;;;;;;;;;;5094871;28;20089;-68
2021/08/14 10:21:49;;;;;;;6.38;3.97;;;;;;;;;;5093623;28;20016;-67
2021/08/14 10:24:15;;;;;;;9.98;4.97;;;;;;;;;;5094899;28;20393;-67
2021/08/14 10:26:41;;;;;;;6.30;4.00;;;;;;;;;;5094448;28;20020;-67
2021/08/14 10:29:07;;;;;;;6.03;4.07;;;;;;;;;;5093438;28;20067;-69
2021/08/14 10:31:34;;;;;;;7.63;3.85;;;;;;;;;;5094854;28;20016;-67
2021/08/14 10:34:12;;;;;;;5.93;3.80;;;;;;;;;;5094328;28;20034;-66
2021/08/14 10:36:39;;;;;;;6.72;3.85;;;;;;;;;;5094621;28;20091;-67
2021/08/14 10:39:16;;;;;;;7.65;4.10;;;;;;;;;;5094690;28;20380;-68
2021/08/14 10:41:43;;;;;;;9.55;3.97;;;;;;;;;;5092844;28;20390;-67
2021/08/14 10:44:09;;;;;;;6.82;4.38;;;;;;;;;;5094755;28;20027;-67
2021/08/14 10:46:36;;;;;;;6.65;3.42;;;;;;;;;;5094106;28;20027;-67
2021/08/14 10:49:03;;;;;;;8.18;3.97;;;;;;;;;;5094104;28;20040;-67
2021/08/14 10:51:51;;;;;;;6.80;4.25;;;;;;;;;;5094291;28;20103;-67
2021/08/14 10:54:43;;;;;;;7.80;3.97;;;;;;;;;;5093937;28;20031;-67
2021/08/14 10:57:10;;;;;;;6.90;4.30;;;;;;;;;;5070802;28;20500;-67
2021/08/14 10:59:37;;;;;;;8.13;4.35;;;;;;;;;;5094263;28;20457;-67
2021/08/14 11:02:29;;;;;;;6.40;4.25;;;;;;;;;;5092522;28;20429;-68
2021/08/14 11:04:56;;;;;;;7.50;4.28;;;;;;;;;;5094458;28;20091;-68
2021/08/14 11:07:22;;;;;;;6.15;3.55;;;;;;;;;;5094229;28;20028;-68
2021/08/14 11:09:55;;;;;;;7.85;4.25;;;;;;;;;;5092238;28;20396;-65
2021/08/14 11:12:48;;;;;;;5.95;3.80;;;;;;;;;;5093964;28;20065;-67
2021/08/14 11:15:14;;;;;;;7.22;4.28;;;;;;;;;;5090984;28;20119;-67
2021/08/14 11:17:41;;;;;;;8.43;4.45;;;;;;;;;;5092610;28;20044;-67
2021/08/14 11:20:27;;;;;;;6.32;3.67;;;;;;;;;;5093853;28;20032;-67
2021/08/14 11:22:57;;;;;;;6.05;3.83;;;;;;;;;;5082974;28;20038;-67
2021/08/14 11:25:28;;;;;;;8.85;3.90;;;;;;;;;;5094156;28;20052;-66
2021/08/14 11:28:02;;;;;;;6.63;3.40;;;;;;;;;;5092509;28;20111;-67
2021/08/14 11:30:32;;;;;;;5.90;4.13;;;;;;;;;;5093252;28;20032;-67
2021/08/14 11:32:59;;;;;;;9.02;3.90;;;;;;;;;;5093647;28;20388;-68
2021/08/14 11:35:26;;;;;;;8.30;3.92;;;;;;;;;;5093947;28;20054;-66
2021/08/14 11:37:53;;;;;;;5.15;3.45;;;;;;;;;;5093270;28;20051;-68
2021/08/14 11:40:21;;;;;;;6.28;3.63;;;;;;;;;;5093638;28;20028;-67
2021/08/14 11:42:54;;;;;;;5.80;3.58;;;;;;;;;;5093261;28;20051;-68
2021/08/14 11:45:21;;;;;;;5.78;3.03;;;;;;;;;;5093602;28;20496;-67
2021/08/14 11:47:47;;;;;;;9.05;3.65;;;;;;;;;;5092262;28;20107;-67
2021/08/14 11:50:13;;;;;;;6.45;3.65;;;;;;;;;;5092792;28;20616;-67
2021/08/14 11:52:39;;;;;;;8.02;3.90;;;;;;;;;;5092186;28;20111;-67
2021/08/14 11:55:10;;;;;;;5.55;3.60;;;;;;;;;;5093492;28;20031;-67
2021/08/14 11:57:40;;;;;;;6.27;3.57;;;;;;;;;;5091771;28;20069;-67
2021/08/14 12:00:18;;;;;;;10.73;3.70;;;;;;;;;;5093396;28;20480;-65
2021/08/14 12:02:45;;;;;;;6.22;3.78;;;;;;;;;;5092080;28;20054;-67
2021/08/14 12:05:11;;;;;;;7.05;3.60;;;;;;;;;;5091701;28;20031;-67
2021/08/14 12:07:38;;;;;;;4.75;3.67;;;;;;;;;;5093610;28;20146;-67
2021/08/14 12:10:04;;;;;;;8.57;3.83;;;;;;;;;;5093226;28;20059;-67
2021/08/14 12:12:30;;;;;;;5.75;3.45;;;;;;;;;;5092908;28;20180;-67
2021/08/14 12:14:57;;;;;;;6.22;3.20;;;;;;;;;;5093294;28;20028;-66
2021/08/14 12:17:23;;;;;;;5.47;3.83;;;;;;;;;;5092197;28;20035;-67
2021/08/14 12:19:54;;;;;;;5.50;3.40;;;;;;;;;;5091559;28;20028;-68
2021/08/14 12:22:20;;;;;;;5.28;3.40;;;;;;;;;;5093550;28;20020;-67
2021/08/14 12:24:48;;;;;;;7.55;3.55;;;;;;;;;;5093233;28;20061;-66
2021/08/14 12:27:23;;;;;;;8.15;3.28;;;;;;;;;;5092790;28;20031;-66
2021/08/14 12:29:49;;;;;;;5.07;3.05;;;;;;;;;;5093016;28;20101;-65
2021/08/14 12:32:15;;;;;;;6.13;3.42;;;;;;;;;;5092702;28;20066;-66
2021/08/14 12:34:44;;;;;;;8.05;3.47;;;;;;;;;;5091793;28;20476;-67
2021/08/14 12:37:14;;;;;;;6.32;3.45;;;;;;;;;;5096698;28;20028;-67
2021/08/14 12:39:45;;;;;;;6.40;3.47;;;;;;;;;;5096513;28;20026;-66
2021/08/14 12:42:15;;;;;;;6.13;2.95;;;;;;;;;;5096905;28;20421;-66
2021/08/14 12:44:42;;;;;;;5.53;3.22;;;;;;;;;;5096864;28;20081;-66
2021/08/14 12:47:08;;;;;;;4.78;2.80;;;;;;;;;;5096395;28;20029;-66
2021/08/14 12:49:34;;;;;;;6.15;3.63;;;;;;;;;;5096439;28;20089;-67
2021/08/14 12:52:05;;;;;;;5.45;3.22;;;;;;;;;;5097248;28;20471;-67
2021/08/14 12:54:32;;;;;;;6.55;3.33;;;;;;;;;;5096189;28;20032;-67
2021/08/14 12:57:04;;;;;;;6.07;3.47;;;;;;;;;;5096543;28;20076;-67
2021/08/14 12:59:31;;;;;;;5.15;2.90;;;;;;;;;;5095255;28;20024;-67
2021/08/14 13:01:59;;;;;;;7.22;3.35;;;;;;;;;;5094846;28;20107;-67
2021/08/14 13:04:25;;;;;;;6.22;3.00;;;;;;;;;;5096424;28;20028;-66
2021/08/14 13:06:51;;;;;;;4.93;3.20;;;;;;;;;;5095085;28;20016;-67
2021/08/14 13:09:18;;;;;;;6.97;3.38;;;;;;;;;;5094641;28;20061;-67
2021/08/14 13:11:44;;;;;;;6.40;3.17;;;;;;;;;;5094991;28;20055;-67
2021/08/14 13:14:10;;;;;;;5.28;2.72;;;;;;;;;;5096116;28;20024;-67
2021/08/14 13:16:36;;;;;;;4.97;3.13;;;;;;;;;;5096246;28;20472;-67
2021/08/14 13:19:03;;;;;;;5.47;2.97;;;;;;;;;;5096688;28;20016;-67
2021/08/14 13:21:30;;;;;;;4.30;2.70;;;;;;;;;;5095729;28;20421;-67
2021/08/14 13:23:56;;;;;;;6.47;3.38;;;;;;;;;;5096020;28;20426;-67
2021/08/14 13:26:22;;;;;;;5.20;2.80;;;;;;;;;;5096063;28;20024;-67
2021/08/14 13:28:48;;;;;;;5.07;2.72;;;;;;;;;;5095663;28;20081;-67
2021/08/14 13:31:14;;;;;;;6.60;2.97;;;;;;;;;;5095918;28;20052;-67
2021/08/14 13:33:41;;;;;;;4.25;2.53;;;;;;;;;;5095982;28;20016;-68
2021/08/14 13:36:07;;;;;;;4.07;2.65;;;;;;;;;;5095561;28;20028;-66
2021/08/14 13:38:33;;;;;;;6.50;3.10;;;;;;;;;;5095996;28;20095;-67
2021/08/14 13:40:59;;;;;;;5.10;3.05;;;;;;;;;;5094410;28;20028;-67
2021/08/14 13:43:25;;;;;;;4.13;2.85;;;;;;;;;;5095384;28;20091;-67
2021/08/14 13:45:52;;;;;;;4.30;2.50;;;;;;;;;;5095645;28;20487;-67
2021/08/14 13:48:18;;;;;;;5.72;3.05;;;;;;;;;;5095308;28;20035;-66
2021/08/14 13:50:44;;;;;;;5.68;2.80;;;;;;;;;;5095365;28;20036;-67
2021/08/14 13:53:10;;;;;;;4.78;2.50;;;;;;;;;;5095756;28;20024;-66
2021/08/14 13:55:36;;;;;;;7.60;3.67;;;;;;;;;;5095596;28;20168;-69
2021/08/14 13:58:03;;;;;;;6.22;2.53;;;;;;;;;;5095058;28;20486;-68
2021/08/14 14:00:29;;;;;;;4.45;2.50;;;;;;;;;;5095429;28;20024;-67
2021/08/14 14:02:55;;;;;;;6.70;3.10;;;;;;;;;;5095278;28;20473;-67
2021/08/14 14:05:21;;;;;;;4.82;2.70;;;;;;;;;;5094890;28;20039;-70
2021/08/14 14:07:47;;;;;;;3.85;2.70;;;;;;;;;;5095178;28;20024;-66
2021/08/14 14:10:13;;;;;;;5.57;2.95;;;;;;;;;;5095078;28;20085;-69
2021/08/14 14:12:40;;;;;;;4.32;2.53;;;;;;;;;;5094717;28;20016;-67
2021/08/14 14:15:07;;;;;;;4.85;2.72;;;;;;;;;;5095668;28;20067;-67
2021/08/14 14:17:33;;;;;;;4.57;2.47;;;;;;;;;;5094886;28;20485;-68
2021/08/14 14:20:01;;;;;;;6.45;2.50;;;;;;;;;;5093805;28;20027;-67
2021/08/14 14:22:27;;;;;;;5.32;2.55;;;;;;;;;;5095564;28;20031;-68
2021/08/14 14:24:53;;;;;;;5.60;2.63;;;;;;;;;;5094538;28;20031;-67
2021/08/14 14:27:19;;;;;;;6.25;2.50;;;;;;;;;;5093533;28;20493;-68
2021/08/14 14:29:46;;;;;;;3.78;2.13;;;;;;;;;;5094853;28;20032;-67
2021/08/14 14:32:12;;;;;;;8.73;3.28;;;;;;;;;;5094548;28;20020;-67
2021/08/14 14:34:38;;;;;;;4.38;2.22;;;;;;;;;;5094744;28;20039;-69
2021/08/14 14:37:07;;;;;;;5.78;2.72;;;;;;;;;;5094682;28;20039;-67
2021/08/14 14:39:34;;;;;;;4.80;2.33;;;;;;;;;;5093014;28;20135;-67
2021/08/14 14:42:05;;;;;;;4.00;2.33;;;;;;;;;;5094715;28;20028;-68
2021/08/14 14:44:31;;;;;;;4.07;2.30;;;;;;;;;;5094521;28;20020;-69
2021/08/14 14:46:57;;;;;;;5.45;2.70;;;;;;;;;;5094085;28;20043;-67
2021/08/14 14:49:23;;;;;;;3.75;2.05;;;;;;;;;;5094477;28;20083;-67
2021/08/14 14:51:50;;;;;;;6.00;2.58;;;;;;;;;;5094365;28;20024;-67
2021/08/14 14:54:16;;;;;;;5.57;2.55;;;;;;;;;;5093954;28;20024;-67
2021/08/14 14:56:42;;;;;;;9.65;2.30;;;;;;;;;;5094266;28;20024;-67
2021/08/14 14:59:08;;;;;;;3.70;2.10;;;;;;;;;;5094147;28;20488;-67
2021/08/14 15:01:34;;;;;;;4.22;2.45;;;;;;;;;;5093812;28;20030;-67
2021/08/14 15:04:01;;;;;;;6.47;2.85;;;;;;;;;;5094162;28;20472;-67
2021/08/14 15:06:27;;;;;;;3.40;1.83;;;;;;;;;;5094077;28;20136;-67
2021/08/14 15:08:53;;;;;;;3.55;2.05;;;;;;;;;;5093653;28;20377;-67
2021/08/14 15:11:20;;;;;;;4.05;2.35;;;;;;;;;;5094032;28;20036;-67
2021/08/14 15:13:46;;;;;;;4.35;2.97;;;;;;;;;;5093940;28;20024;-67
2021/08/14 15:16:12;;;;;;;3.45;2.17;;;;;;;;;;5093704;28;20020;-68
2021/08/14 15:18:39;;;;;;;4.07;2.75;;;;;;;;;;5092619;28;20565;-66
2021/08/14 15:21:06;;;;;;;8.73;2.47;;;;;;;;;;5093463;28;20028;-66
2021/08/14 15:23:32;;;;;;;5.28;2.53;;;;;;;;;;5094040;28;20020;-67
2021/08/14 15:25:59;;;;;;;5.28;2.67;;;;;;;;;;5094362;28;20464;-66